Time;durP1;ratioP1;P1;durP2;ratioP2;P2;SDS_P1;SDS_P2;PMS_P1;PMS_P2;Temp;Humidity;BMP_temperature;BMP_pressure;BME280_temperature;BME280_humidity;BME280_pressure;Samples;Min_cycle;Max_cycle;Signal;HPM_P1;HPM_P2
2021/09/19 00:00:09;;;;;;;9.32;7.60;;;;;;;16.33;59.78;93863.72;5035613;28;20136;-76
2021/09/19 00:02:35;;;;;;;9.75;8.75;;;;;;;16.30;59.88;93873.22;5036400;28;20614;-76
2021/09/19 00:05:01;;;;;;;10.68;7.85;;;;;;;16.01;60.52;93873.63;5038692;28;20029;-76
2021/09/19 00:07:26;;;;;;;8.80;7.63;;;;;;;16.04;61.67;93867.56;5030510;28;20147;-76
2021/09/19 00:09:52;;;;;;;11.40;8.63;;;;;;;15.99;62.25;93854.44;5037842;28;20040;-76
2021/09/19 00:12:17;;;;;;;10.05;7.32;;;;;;;15.97;61.21;93867.41;5054749;28;20060;-76
2021/09/19 00:14:44;;;;;;;8.43;7.18;;;;;;;15.88;62.04;93854.16;5036950;28;20080;-77
2021/09/19 00:17:09;;;;;;;7.90;6.72;;;;;;;15.85;61.47;93828.81;5037358;28;20589;-77
2021/09/19 00:19:35;;;;;;;8.35;6.82;;;;;;;15.91;61.58;93842.75;5036122;28;20033;-76
2021/09/19 00:22:00;;;;;;;5.97;5.47;;;;;;;15.82;60.98;93815.31;5048500;28;20120;-76
2021/09/19 00:24:26;;;;;;;7.18;6.10;;;;;;;15.94;61.50;93827.88;5037423;28;20140;-75
2021/09/19 00:26:52;;;;;;;6.35;5.75;;;;;;;15.83;61.39;93824.94;5035418;28;20496;-75
2021/09/19 00:29:17;;;;;;;7.40;6.63;;;;;;;16.00;61.48;93829.16;5035099;28;20191;-75
2021/09/19 00:31:42;;;;;;;9.75;7.05;;;;;;;16.02;61.20;93816.97;5038273;28;20020;-75
2021/09/19 00:34:08;;;;;;;9.38;6.72;;;;;;;16.01;61.37;93823.44;5034189;28;20640;-75
2021/09/19 00:36:33;;;;;;;6.70;6.00;;;;;;;16.27;61.01;93836.34;5035658;28;20037;-76
2021/09/19 00:38:58;;;;;;;7.35;6.57;;;;;;;16.25;60.42;93831.31;5039733;28;20045;-74
2021/09/19 00:41:24;;;;;;;7.78;7.07;;;;;;;16.11;60.86;93819.47;5037318;28;20066;-75
2021/09/19 00:43:52;;;;;;;8.55;7.65;;;;;;;16.19;61.51;93821.97;5036359;28;20563;-75
2021/09/19 00:46:17;;;;;;;7.57;6.88;;;;;;;16.10;60.64;93801.81;5034372;28;20045;-76
2021/09/19 00:48:43;;;;;;;8.48;7.40;;;;;;;16.20;60.77;93812.00;5036596;28;20329;-74
2021/09/19 00:51:08;;;;;;;10.43;6.85;;;;;;;16.20;61.20;93810.09;5035276;28;20044;-75
2021/09/19 00:53:37;;;;;;;8.40;6.88;;;;;;;16.33;60.67;93816.94;5038199;28;20060;-74
2021/09/19 00:56:04;;;;;;;8.13;7.32;;;;;;;16.39;59.62;93819.38;5036432;28;20342;-74
2021/09/19 00:58:32;;;;;;;8.00;6.88;;;;;;;16.36;60.15;93817.41;5033787;28;20125;-74
2021/09/19 01:00:58;;;;;;;7.78;6.25;;;;;;;16.31;60.43;93815.75;5033492;28;20436;-74
2021/09/19 01:03:26;;;;;;;7.47;6.00;;;;;;;16.30;60.19;93806.94;5034793;28;20033;-75
2021/09/19 01:05:52;;;;;;;9.10;7.00;;;;;;;16.18;59.89;93798.19;5034649;28;20362;-74
2021/09/19 01:08:19;;;;;;;8.50;6.32;;;;;;;16.35;59.74;93810.47;5034779;28;20118;-74
2021/09/19 01:10:45;;;;;;;7.13;6.45;;;;;;;16.36;59.83;93814.72;5037021;28;20024;-75
2021/09/19 01:13:11;;;;;;;7.22;6.53;;;;;;;16.35;60.35;93807.78;5033205;28;20059;-75
2021/09/19 01:15:37;;;;;;;7.25;6.65;;;;;;;16.36;59.55;93807.44;5038387;28;20403;-74
2021/09/19 01:18:03;;;;;;;8.38;7.57;;;;;;;16.40;59.40;93807.50;5035901;28;20033;-75
2021/09/19 01:20:29;;;;;;;7.30;6.38;;;;;;;16.29;59.02;93785.75;5034995;28;20132;-74
2021/09/19 01:23:01;;;;;;;7.40;6.70;;;;;;;16.08;59.39;93761.94;5031384;28;20120;-75
2021/09/19 01:25:27;;;;;;;9.48;6.90;;;;;;;16.31;59.54;93797.75;5033041;28;20454;-75
2021/09/19 01:27:53;;;;;;;7.03;6.43;;;;;;;16.23;59.82;93790.63;5033657;28;20041;-75
2021/09/19 01:30:18;;;;;;;7.00;5.82;;;;;;;16.45;58.39;93799.19;5034122;28;20380;-75
2021/09/19 01:32:44;;;;;;;10.10;6.30;;;;;;;16.31;58.98;93792.38;5034710;28;20044;-76
2021/09/19 01:35:11;;;;;;;6.35;5.75;;;;;;;16.24;58.26;93773.41;5033890;28;20063;-75
2021/09/19 01:37:37;;;;;;;9.05;5.63;;;;;;;16.29;57.69;93789.22;5035635;28;20049;-76
2021/09/19 01:40:04;;;;;;;6.35;5.05;;;;;;;16.33;57.24;93797.38;5036855;28;20059;-75
2021/09/19 01:42:30;;;;;;;6.78;4.78;;;;;;;16.18;57.59;93792.81;5035960;28;20032;-75
2021/09/19 01:44:55;;;;;;;4.65;4.25;;;;;;;16.21;57.28;93782.16;5034806;28;20056;-75
2021/09/19 01:47:22;;;;;;;6.47;4.70;;;;;;;16.04;56.95;93763.72;5033136;28;20025;-76
2021/09/19 01:49:49;;;;;;;4.28;3.92;;;;;;;16.11;57.36;93792.63;5033884;28;20033;-75
2021/09/19 01:52:16;;;;;;;6.15;3.75;;;;;;;15.94;57.30;93787.66;5033806;28;20706;-74
2021/09/19 01:54:41;;;;;;;6.10;4.13;;;;;;;15.90;57.62;93787.53;5033214;28;20041;-77
2021/09/19 01:57:07;;;;;;;4.55;4.15;;;;;;;15.96;57.09;93796.88;5036486;28;20033;-77
2021/09/19 01:59:33;;;;;;;6.15;3.55;;;;;;;15.87;57.78;93809.69;5033373;28;20392;-75
2021/09/19 02:01:59;;;;;;;6.07;4.47;;;;;;;15.71;58.67;93811.59;5037760;28;20032;-75
2021/09/19 02:04:24;;;;;;;5.43;4.20;;;;;;;15.52;59.33;93803.44;5033429;28;20032;-75
2021/09/19 02:06:50;;;;;;;5.03;3.78;;;;;;;15.61;59.40;93801.38;5026409;28;20033;-76
2021/09/19 02:09:15;;;;;;;7.32;3.42;;;;;;;15.70;58.98;93785.88;5033648;28;20103;-76
2021/09/19 02:11:40;;;;;;;5.25;4.10;;;;;;;15.73;58.97;93785.22;5031443;28;20106;-76
2021/09/19 02:14:06;;;;;;;5.75;5.18;;;;;;;15.70;59.45;93785.88;5031055;28;21035;-76
2021/09/19 02:16:31;;;;;;;7.00;5.25;;;;;;;15.69;59.88;93787.03;5034673;28;20044;-77
2021/09/19 02:18:57;;;;;;;3.92;3.53;;;;;;;15.66;59.89;93756.31;5034087;28;20029;-76
2021/09/19 02:21:23;;;;;;;4.28;3.72;;;;;;;15.92;59.24;93790.66;5032335;28;20033;-76
2021/09/19 02:23:49;;;;;;;3.25;2.95;;;;;;;15.98;58.31;93765.16;5035722;28;20033;-76
2021/09/19 02:26:14;;;;;;;3.50;3.20;;;;;;;15.96;58.76;93785.38;5032437;28;20032;-76
2021/09/19 02:28:40;;;;;;;3.10;2.80;;;;;;;15.61;59.36;93729.00;5034840;28;20403;-76
2021/09/19 02:31:05;;;;;;;5.65;3.40;;;;;;;15.87;59.94;93777.50;5031350;28;20119;-77
2021/09/19 02:33:31;;;;;;;3.88;3.50;;;;;;;15.84;59.78;93770.94;5034492;28;20399;-77
2021/09/19 02:35:57;;;;;;;4.82;4.20;;;;;;;15.97;59.27;93787.72;5031633;28;20036;-76
2021/09/19 02:38:22;;;;;;;4.88;4.30;;;;;;;15.99;59.04;93780.09;5037066;28;20017;-77
2021/09/19 02:40:48;;;;;;;4.38;3.88;;;;;;;15.86;59.19;93754.50;5035161;28;20024;-76
2021/09/19 02:43:13;;;;;;;3.65;2.83;;;;;;;15.71;59.98;93760.63;5048964;28;20029;-76
2021/09/19 02:45:39;;;;;;;6.88;3.28;;;;;;;15.94;59.58;93783.03;5031869;28;20072;-76
2021/09/19 02:48:05;;;;;;;7.00;3.38;;;;;;;15.89;59.40;93781.41;5033021;28;20033;-76
2021/09/19 02:50:30;;;;;;;3.58;3.28;;;;;;;15.86;59.32;93773.28;5033353;28;20079;-77
2021/09/19 02:52:56;;;;;;;3.15;2.92;;;;;;;15.99;59.42;93784.69;5031743;28;20036;-76
2021/09/19 02:55:21;;;;;;;5.25;3.17;;;;;;;15.85;59.63;93782.44;5035018;28;20047;-76
2021/09/19 02:57:47;;;;;;;4.90;3.13;;;;;;;15.91;59.66;93778.38;5028382;28;20037;-77
2021/09/19 03:00:18;;;;;;;3.92;3.42;;;;;;;15.91;60.01;93778.38;5035460;28;20305;-76
2021/09/19 03:02:45;;;;;;;5.82;3.80;;;;;;;15.84;60.44;93783.59;5032471;28;20041;-75
2021/09/19 03:05:11;;;;;;;5.00;3.45;;;;;;;15.83;60.17;93773.97;5032486;28;20025;-76
2021/09/19 03:07:37;;;;;;;4.78;3.78;;;;;;;15.80;60.90;93777.31;5033500;28;20056;-76
2021/09/19 03:10:04;;;;;;;4.22;3.83;;;;;;;15.78;60.98;93774.22;5034821;28;20616;-76
2021/09/19 03:12:30;;;;;;;6.88;3.95;;;;;;;15.79;61.21;93770.44;5033489;28;20042;-76
2021/09/19 03:14:55;;;;;;;4.65;4.15;;;;;;;15.77;61.29;93764.63;5036383;28;20185;-76
2021/09/19 03:17:21;;;;;;;5.28;3.67;;;;;;;15.93;61.38;93775.34;5034044;28;20393;-76
2021/09/19 03:19:46;;;;;;;6.85;3.45;;;;;;;15.80;61.64;93769.28;5034320;28;20020;-76
2021/09/19 03:22:11;;;;;;;5.72;3.65;;;;;;;15.73;61.54;93766.44;5049632;28;20508;-76
2021/09/19 03:24:38;;;;;;;4.38;3.97;;;;;;;15.82;62.23;93780.47;5032876;28;20039;-76
2021/09/19 03:27:03;;;;;;;3.63;3.33;;;;;;;15.89;61.46;93783.28;5033219;28;20033;-77
2021/09/19 03:29:29;;;;;;;4.25;3.53;;;;;;;15.89;61.57;93775.25;5031152;28;20036;-76
2021/09/19 03:31:54;;;;;;;6.18;3.63;;;;;;;15.99;61.19;93779.34;5035658;28;20029;-76
2021/09/19 03:34:20;;;;;;;4.15;3.53;;;;;;;15.95;60.80;93751.63;5032062;28;20048;-76
2021/09/19 03:36:45;;;;;;;4.82;3.45;;;;;;;15.99;60.55;93768.59;5036242;28;20522;-78
2021/09/19 03:39:10;;;;;;;4.28;3.83;;;;;;;15.94;60.76;93761.56;5029266;28;20149;-76
2021/09/19 03:41:36;;;;;;;4.20;3.80;;;;;;;16.05;60.60;93784.06;5034933;28;20037;-76
2021/09/19 03:44:04;;;;;;;4.97;3.63;;;;;;;16.12;60.76;93783.47;5027222;28;20033;-77
2021/09/19 03:46:30;;;;;;;9.10;4.55;;;;;;;16.12;60.66;93783.47;5032021;28;20029;-76
2021/09/19 03:48:56;;;;;;;5.13;4.00;;;;;;;16.07;60.75;93781.84;5032907;28;20629;-76
2021/09/19 03:51:21;;;;;;;6.03;4.07;;;;;;;16.03;61.18;93775.59;5031528;28;20045;-77
2021/09/19 03:53:48;;;;;;;4.22;3.80;;;;;;;16.06;60.79;93777.59;5048340;28;20128;-76
2021/09/19 03:56:19;;;;;;;4.00;2.88;;;;;;;15.80;60.40;93724.47;5035087;28;20036;-76
2021/09/19 03:58:45;;;;;;;5.30;2.90;;;;;;;16.26;59.37;93771.16;5032381;28;20028;-77
2021/09/19 04:01:10;;;;;;;5.00;3.88;;;;;;;16.16;59.89;93762.88;5034212;28;20033;-76
2021/09/19 04:03:35;;;;;;;4.97;3.60;;;;;;;16.32;59.90;93774.38;5029107;28;20444;-76
2021/09/19 04:06:01;;;;;;;4.43;3.38;;;;;;;16.45;59.07;93791.91;5032844;28;20427;-76
2021/09/19 04:08:26;;;;;;;8.38;3.90;;;;;;;16.32;59.89;93798.53;5027230;28;20102;-76
2021/09/19 04:10:51;;;;;;;5.70;5.03;;;;;;;16.42;59.39;93789.16;5033567;28;20040;-76
2021/09/19 04:13:17;;;;;;;7.47;4.07;;;;;;;16.10;60.27;93765.03;5035359;28;20032;-75
2021/09/19 04:15:42;;;;;;;5.18;4.53;;;;;;;16.09;60.37;93773.41;5033021;28;20179;-76
2021/09/19 04:18:08;;;;;;;11.88;5.60;;;;;;;16.00;60.37;93770.91;5033356;28;20086;-77
2021/09/19 04:20:34;;;;;;;5.20;4.65;;;;;;;15.92;60.79;93763.84;5047101;28;20033;-77
2021/09/19 04:23:00;;;;;;;4.28;3.55;;;;;;;16.03;60.16;93759.50;5030544;28;20032;-76
2021/09/19 04:25:26;;;;;;;3.92;3.20;;;;;;;16.20;59.25;93772.53;5031631;28;20527;-77
2021/09/19 04:27:51;;;;;;;4.88;2.88;;;;;;;16.12;59.25;93780.78;5033291;28;20103;-75
2021/09/19 04:30:17;;;;;;;5.93;3.33;;;;;;;16.02;59.34;93774.03;5027645;28;20040;-76
2021/09/19 04:32:43;;;;;;;4.53;2.55;;;;;;;15.74;59.32;93757.28;5029226;28;20376;-76
2021/09/19 04:35:09;;;;;;;3.55;2.40;;;;;;;15.84;59.33;93778.22;5036209;28;20384;-76
2021/09/19 04:37:35;;;;;;;5.18;3.25;;;;;;;15.71;59.34;93790.91;5035940;28;20037;-76
2021/09/19 04:40:00;;;;;;;3.50;2.25;;;;;;;15.79;59.76;93794.56;5035153;28;20037;-75
2021/09/19 04:42:27;;;;;;;4.07;2.00;;;;;;;15.73;60.25;93794.03;5037874;28;20047;-76
2021/09/19 04:44:53;;;;;;;2.53;2.33;;;;;;;15.62;60.97;93787.63;5036430;28;20499;-76
2021/09/19 04:47:19;;;;;;;5.38;2.28;;;;;;;15.74;60.61;93805.53;5033914;28;20034;-76
2021/09/19 04:49:44;;;;;;;3.92;2.53;;;;;;;15.64;61.57;93811.41;5036217;28;20025;-76
2021/09/19 04:52:10;;;;;;;2.53;2.30;;;;;;;15.68;61.38;93782.78;5033564;28;20090;-76
2021/09/19 04:54:35;;;;;;;2.38;2.17;;;;;;;15.78;61.00;93779.59;5034151;28;20839;-76
2021/09/19 04:57:01;;;;;;;2.95;2.50;;;;;;;15.81;60.03;93778.91;5036122;28;20495;-76
2021/09/19 04:59:26;;;;;;;2.00;1.80;;;;;;;15.87;60.86;93804.34;5029308;28;20036;-76
2021/09/19 05:01:52;;;;;;;2.95;2.38;;;;;;;15.85;60.87;93793.16;5053795;28;20419;-76
2021/09/19 05:04:17;;;;;;;2.47;2.03;;;;;;;15.77;61.12;93800.25;5034550;28;20609;-76
2021/09/19 05:06:43;;;;;;;4.95;2.50;;;;;;;15.85;61.44;93793.16;5037670;28;20398;-76
2021/09/19 05:09:08;;;;;;;3.10;2.40;;;;;;;15.99;61.60;93796.19;5032826;28;20061;-76
2021/09/19 05:11:34;;;;;;;2.33;2.13;;;;;;;16.08;61.87;93794.13;5032541;28;20069;-76
2021/09/19 05:14:00;;;;;;;3.72;2.45;;;;;;;16.30;60.08;93790.00;5034285;28;20031;-76
2021/09/19 05:16:26;;;;;;;3.15;2.28;;;;;;;16.30;58.61;93780.09;5036756;28;20041;-75
2021/09/19 05:18:52;;;;;;;2.50;2.30;;;;;;;16.27;58.13;93771.94;5037040;28;20042;-76
2021/09/19 05:21:17;;;;;;;2.63;2.22;;;;;;;16.40;59.00;93799.47;5036105;28;20033;-76
2021/09/19 05:23:43;;;;;;;4.05;2.30;;;;;;;16.37;59.72;93792.13;5035865;28;20450;-76
2021/09/19 05:26:08;;;;;;;5.50;2.55;;;;;;;16.27;60.18;93791.50;5034795;28;20033;-76
2021/09/19 05:28:34;;;;;;;2.60;2.40;;;;;;;16.18;60.44;93804.31;5037360;28;20044;-76
2021/09/19 05:30:59;;;;;;;3.90;2.33;;;;;;;16.15;60.22;93788.91;5035582;28;20048;-75
2021/09/19 05:33:24;;;;;;;2.92;2.63;;;;;;;16.24;60.60;93802.13;5036258;28;20065;-76
2021/09/19 05:35:50;;;;;;;5.60;2.85;;;;;;;16.39;60.04;93808.63;5034068;28;20405;-76
2021/09/19 05:38:16;;;;;;;4.13;3.03;;;;;;;16.33;59.83;93783.22;5034032;28;20025;-76
2021/09/19 05:40:42;;;;;;;2.65;2.42;;;;;;;16.57;58.79;93789.13;5032053;28;20498;-76
2021/09/19 05:43:07;;;;;;;5.32;2.40;;;;;;;16.52;58.69;93775.19;5029311;28;20036;-76
2021/09/19 05:45:33;;;;;;;2.80;2.60;;;;;;;16.47;58.77;93775.47;5033491;28;20041;-77
2021/09/19 05:47:59;;;;;;;3.78;3.05;;;;;;;16.46;59.71;93784.66;5037890;28;20469;-76
2021/09/19 05:50:25;;;;;;;3.45;3.15;;;;;;;16.58;59.63;93779.16;5034517;28;20036;-76
2021/09/19 05:52:51;;;;;;;4.57;3.47;;;;;;;16.51;59.41;93771.75;5034144;28;20037;-76
2021/09/19 05:55:17;;;;;;;3.28;2.97;;;;;;;16.16;58.51;93744.88;5029935;28;20613;-76
2021/09/19 05:57:43;;;;;;;5.95;2.90;;;;;;;16.42;60.39;93756.97;5030598;28;20047;-76
2021/09/19 06:00:10;;;;;;;6.20;3.60;;;;;;;16.31;60.34;93752.13;5050681;28;20047;-76
2021/09/19 06:02:36;;;;;;;4.40;3.63;;;;;;;16.30;60.76;93731.78;5031379;28;20123;-76
2021/09/19 06:05:02;;;;;;;4.38;3.60;;;;;;;16.37;60.55;93730.38;5034855;28;20596;-76
2021/09/19 06:07:27;;;;;;;5.07;3.78;;;;;;;16.42;60.60;93748.91;5032122;28;20570;-76
2021/09/19 06:09:53;;;;;;;9.10;4.22;;;;;;;16.58;60.44;93752.28;5048738;28;20049;-76
2021/09/19 06:12:18;;;;;;;4.75;4.35;;;;;;;16.64;59.65;93751.69;5034942;28;20037;-77
2021/09/19 06:14:44;;;;;;;6.35;4.75;;;;;;;16.87;60.65;93767.09;5032190;28;20045;-76
2021/09/19 06:17:10;;;;;;;7.57;4.50;;;;;;;17.00;60.07;93768.53;5034426;28;20437;-76
2021/09/19 06:19:36;;;;;;;6.15;5.03;;;;;;;16.95;59.27;93761.53;5032512;28;20109;-76
2021/09/19 06:22:01;;;;;;;6.80;4.75;;;;;;;17.00;59.85;93763.94;5032549;28;20090;-77
2021/09/19 06:24:29;;;;;;;5.00;4.57;;;;;;;17.14;58.85;93761.53;5031440;28;20036;-77
2021/09/19 06:26:59;;;;;;;4.95;4.47;;;;;;;17.30;58.30;93766.84;5035424;28;20140;-76
2021/09/19 06:29:25;;;;;;;9.23;4.47;;;;;;;17.38;58.46;93773.88;5036298;28;20017;-76
2021/09/19 06:31:50;;;;;;;7.43;4.60;;;;;;;17.45;57.93;93762.50;5032536;28;20153;-76
2021/09/19 06:34:16;;;;;;;7.00;4.63;;;;;;;17.52;57.44;93773.34;5033045;28;20040;-77
2021/09/19 06:36:43;;;;;;;9.38;5.13;;;;;;;17.12;57.61;93771.81;5033546;28;20045;-77
2021/09/19 06:39:09;;;;;;;7.43;4.82;;;;;;;16.92;58.79;93756.84;5034920;28;20048;-76
2021/09/19 06:41:34;;;;;;;6.40;5.38;;;;;;;17.08;58.09;93787.09;5030252;28;20037;-76
2021/09/19 06:44:00;;;;;;;10.85;5.85;;;;;;;17.09;57.76;93783.28;5029014;28;20103;-76
2021/09/19 06:46:29;;;;;;;6.88;6.07;;;;;;;17.15;58.35;93776.53;5035579;28;20059;-76
2021/09/19 06:48:56;;;;;;;9.77;6.68;;;;;;;17.26;55.62;93755.22;5035273;28;20056;-76
2021/09/19 06:51:23;;;;;;;10.80;7.93;;;;;;;17.25;57.11;93744.84;5027941;28;20068;-76
2021/09/19 06:53:48;;;;;;;7.95;7.15;;;;;;;17.08;57.44;93754.84;5050128;28;20038;-76
2021/09/19 06:56:14;;;;;;;9.65;6.85;;;;;;;17.16;56.74;93785.34;5029536;28;20032;-76
2021/09/19 06:58:39;;;;;;;6.53;5.35;;;;;;;17.39;55.31;93774.66;5030819;28;20029;-76
2021/09/19 07:01:04;;;;;;;5.22;4.70;;;;;;;17.33;54.64;93760.72;5028494;28;20033;-77
2021/09/19 07:03:30;;;;;;;6.45;4.80;;;;;;;17.58;53.06;93783.47;5031868;28;20033;-76
2021/09/19 07:05:55;;;;;;;7.40;4.68;;;;;;;17.62;52.05;93772.78;5032964;28;20048;-76
2021/09/19 07:08:21;;;;;;;10.55;7.20;;;;;;;17.70;54.67;93782.50;5032831;28;20064;-77
2021/09/19 07:10:47;;;;;;;8.52;7.63;;;;;;;17.58;56.32;93778.09;5032694;28;20686;-77
2021/09/19 07:13:13;;;;;;;11.88;10.68;;;;;;;17.70;56.70;93785.19;5030781;28;20064;-76
2021/09/19 07:15:41;;;;;;;18.27;13.50;;;;;;;17.69;57.84;93782.88;5032078;28;20712;-76
2021/09/19 07:18:06;;;;;;;15.57;13.98;;;;;;;17.79;57.52;93783.06;5031605;28;20593;-76
2021/09/19 07:20:31;;;;;;;16.02;13.25;;;;;;;17.88;57.99;93786.28;5032147;28;20619;-77
2021/09/19 07:22:57;;;;;;;14.43;13.02;;;;;;;17.87;57.90;93773.97;5032002;28;20041;-76
2021/09/19 07:25:22;;;;;;;16.23;12.95;;;;;;;17.89;55.56;93774.38;5034050;28;20616;-76
2021/09/19 07:27:48;;;;;;;19.48;13.70;;;;;;;17.83;55.18;93777.75;5030048;28;20524;-76
2021/09/19 07:30:14;;;;;;;16.02;13.68;;;;;;;17.46;55.96;93732.53;5033159;28;20052;-76
2021/09/19 07:32:40;;;;;;;15.10;13.55;;;;;;;17.89;56.47;93787.06;5031051;28;20072;-76
2021/09/19 07:35:06;;;;;;;17.33;13.52;;;;;;;17.93;55.79;93794.09;5030162;28;20032;-76
2021/09/19 07:37:32;;;;;;;16.75;12.15;;;;;;;17.88;55.03;93780.13;5025335;28;20834;-76
2021/09/19 07:39:58;;;;;;;14.55;13.07;;;;;;;17.91;55.14;93788.25;5028612;28;20107;-76
2021/09/19 07:42:24;;;;;;;14.98;13.13;;;;;;;17.82;55.79;93786.94;5030589;28;20511;-75
2021/09/19 07:44:50;;;;;;;16.77;14.63;;;;;;;17.95;55.43;93807.16;5033517;28;20091;-75
2021/09/19 07:47:15;;;;;;;22.35;15.40;;;;;;;17.80;55.11;93798.03;5025291;28;20028;-78
2021/09/19 07:49:41;;;;;;;17.45;14.35;;;;;;;17.79;55.90;93793.81;5042009;28;20507;-76
2021/09/19 07:52:08;;;;;;;16.90;14.75;;;;;;;17.63;56.27;93819.25;5030542;28;20060;-75
2021/09/19 07:54:33;;;;;;;20.45;14.50;;;;;;;17.49;56.83;93827.84;5047122;28;20037;-76
2021/09/19 07:57:01;;;;;;;15.00;13.50;;;;;;;17.40;56.78;93816.56;5024512;28;20045;-75
2021/09/19 07:59:26;;;;;;;14.73;12.75;;;;;;;17.55;56.87;93810.31;5047806;28;20021;-76
2021/09/19 08:01:52;;;;;;;14.57;12.80;;;;;;;17.47;55.06;93822.03;5029088;28;20036;-76
2021/09/19 08:04:17;;;;;;;12.88;11.30;;;;;;;17.42;55.46;93804.28;5030202;28;20049;-76
2021/09/19 08:06:43;;;;;;;15.25;11.40;;;;;;;17.66;54.78;93789.75;5028231;28;20523;-75
2021/09/19 08:09:08;;;;;;;14.20;10.80;;;;;;;17.96;54.48;93814.09;5034552;28;20575;-75
2021/09/19 08:11:34;;;;;;;14.73;12.32;;;;;;;17.78;54.98;93794.97;5037622;28;20044;-78
2021/09/19 08:14:06;;;;;;;16.33;12.35;;;;;;;17.89;55.09;93806.66;5036534;28;20077;-76
2021/09/19 08:16:37;;;;;;;15.38;13.10;;;;;;;17.90;54.08;93805.53;5030232;28;20060;-76
2021/09/19 08:19:06;;;;;;;12.57;11.05;;;;;;;17.79;54.49;93820.72;5035304;28;20072;-76
2021/09/19 08:21:31;;;;;;;15.30;11.02;;;;;;;17.93;54.77;93807.53;5039052;28;20033;-75
2021/09/19 08:23:57;;;;;;;14.15;12.18;;;;;;;18.03;52.63;93833.84;5033430;28;20727;-74
2021/09/19 08:26:23;;;;;;;12.43;11.23;;;;;;;18.01;53.84;93828.03;5034113;28;20155;-74
2021/09/19 08:28:48;;;;;;;17.20;12.63;;;;;;;18.03;54.06;93819.63;5034129;28;20044;-75
2021/09/19 08:31:14;;;;;;;14.80;11.45;;;;;;;18.01;54.51;93806.53;5039055;28;20498;-75
2021/09/19 08:33:39;;;;;;;15.65;13.82;;;;;;;18.21;54.29;93798.38;5034423;28;20627;-75
2021/09/19 08:36:05;;;;;;;16.05;13.07;;;;;;;18.29;54.29;93800.78;5034088;28;20465;-74
2021/09/19 08:38:30;;;;;;;14.63;13.13;;;;;;;18.35;54.54;93820.13;5037163;28;20048;-75
2021/09/19 08:40:56;;;;;;;14.48;11.80;;;;;;;18.20;54.25;93810.25;5038940;28;20539;-75
2021/09/19 08:43:21;;;;;;;13.40;12.00;;;;;;;18.03;54.63;93814.25;5036625;28;20072;-75
2021/09/19 08:45:49;;;;;;;12.25;11.05;;;;;;;18.11;54.18;93820.50;5036920;28;20436;-75
2021/09/19 08:48:21;;;;;;;11.90;10.70;;;;;;;18.00;54.98;93823.78;5038182;28;20055;-75
2021/09/19 08:50:52;;;;;;;13.23;11.90;;;;;;;18.04;54.81;93829.22;5035659;28;20044;-75
2021/09/19 08:53:18;;;;;;;12.98;11.57;;;;;;;17.79;55.01;93801.91;5037994;28;20035;-75
2021/09/19 08:55:45;;;;;;;18.95;12.07;;;;;;;17.79;55.59;93809.19;5031085;28;20017;-75
2021/09/19 08:58:10;;;;;;;13.50;12.20;;;;;;;17.37;55.60;93761.56;5036437;28;20033;-75
2021/09/19 09:00:44;;;;;;;19.40;11.95;;;;;;;18.08;54.65;93834.69;5034348;28;21395;-75
2021/09/19 09:03:12;;;;;;;14.45;12.20;;;;;;;18.22;54.45;93826.84;5036525;28;20041;-77
2021/09/19 09:05:38;;;;;;;14.23;11.43;;;;;;;18.12;54.23;93811.28;5035305;28;20596;-76
2021/09/19 09:08:04;;;;;;;15.35;12.80;;;;;;;18.17;54.19;93827.91;5035526;28;20103;-75
2021/09/19 09:10:30;;;;;;;13.38;11.75;;;;;;;18.32;54.70;93826.22;5031390;28;20037;-76
2021/09/19 09:13:10;;;;;;;12.85;11.23;;;;;;;18.43;54.88;93833.31;5034650;28;20045;-76
2021/09/19 09:15:40;;;;;;;14.82;11.60;;;;;;;18.41;54.50;93807.91;5036949;28;20763;-76
2021/09/19 09:18:07;;;;;;;12.52;11.18;;;;;;;18.41;53.50;93818.69;5034661;28;20057;-76
2021/09/19 09:20:47;;;;;;;20.73;12.32;;;;;;;18.46;53.36;93821.84;5051566;28;20025;-75
2021/09/19 09:23:26;;;;;;;15.35;12.23;;;;;;;18.54;53.35;93822.72;5036158;28;20500;-76
2021/09/19 09:26:20;;;;;;;13.52;12.13;;;;;;;18.54;53.75;93817.31;5035314;28;20037;-75
2021/09/19 09:28:52;;;;;;;14.23;11.60;;;;;;;18.46;53.81;93823.75;5033677;28;20658;-76
2021/09/19 09:31:38;;;;;;;16.00;11.85;;;;;;;18.54;53.81;93814.63;5036800;28;20088;-76
2021/09/19 09:34:16;;;;;;;12.90;11.52;;;;;;;18.62;53.95;93808.22;5033997;28;20123;-76
2021/09/19 09:37:11;;;;;;;13.65;11.18;;;;;;;18.72;53.69;93802.25;5035006;28;20060;-75
2021/09/19 09:39:42;;;;;;;13.70;11.30;;;;;;;18.78;54.49;93800.75;5025010;28;20389;-76
2021/09/19 09:42:19;;;;;;;16.85;12.68;;;;;;;18.87;53.20;93792.44;5026322;28;20025;-76
2021/09/19 09:44:46;;;;;;;13.20;11.90;;;;;;;18.85;52.63;93783.94;5032533;28;20478;-75
2021/09/19 09:47:15;;;;;;;13.30;11.93;;;;;;;18.81;52.64;93791.97;5036773;28;20028;-75
2021/09/19 09:49:43;;;;;;;13.45;12.00;;;;;;;18.78;53.37;93778.44;5032735;28;20580;-75
2021/09/19 09:52:13;;;;;;;15.45;12.43;;;;;;;18.88;53.69;93789.34;5034434;28;20344;-76
2021/09/19 09:54:41;;;;;;;13.07;11.68;;;;;;;18.88;53.71;93792.03;5031852;28;20064;-77
2021/09/19 09:57:08;;;;;;;16.35;13.23;;;;;;;18.82;55.10;93781.97;5037386;28;20183;-76
2021/09/19 09:59:34;;;;;;;14.93;13.20;;;;;;;18.76;55.27;93767.25;5032159;28;20064;-76
2021/09/19 10:02:01;;;;;;;14.98;13.35;;;;;;;18.67;56.38;93772.91;5034423;28;20115;-75
2021/09/19 10:04:28;;;;;;;19.33;13.43;;;;;;;18.56;56.26;93763.88;5029848;28;20617;-75
2021/09/19 10:06:54;;;;;;;16.05;14.30;;;;;;;18.77;57.04;93772.25;5031920;28;20044;-76
2021/09/19 10:09:19;;;;;;;15.35;13.75;;;;;;;18.73;56.14;93773.34;5034451;28;20037;-75
2021/09/19 10:11:45;;;;;;;18.33;14.40;;;;;;;18.76;55.26;93746.50;5034516;28;20043;-75
2021/09/19 10:14:10;;;;;;;17.83;14.43;;;;;;;18.81;54.24;93773.09;5035048;28;20027;-75
2021/09/19 10:16:37;;;;;;;17.13;14.48;;;;;;;18.73;54.98;93749.91;5034701;28;20072;-77
2021/09/19 10:19:02;;;;;;;17.40;14.75;;;;;;;18.58;56.46;93748.13;5035093;28;20491;-75
2021/09/19 10:21:31;;;;;;;18.67;14.57;;;;;;;18.50;56.67;93753.78;5032676;28;20044;-76
2021/09/19 10:23:58;;;;;;;16.13;14.38;;;;;;;18.49;55.18;93744.94;5033566;28;20532;-76
2021/09/19 10:26:23;;;;;;;21.58;15.25;;;;;;;18.64;56.98;93768.22;5033253;28;20104;-76
2021/09/19 10:28:53;;;;;;;18.25;15.85;;;;;;;18.48;56.73;93762.22;5034299;28;20039;-76
2021/09/19 10:31:22;;;;;;;17.83;14.50;;;;;;;18.55;56.72;93756.16;5031649;28;21117;-75
2021/09/19 10:33:49;;;;;;;20.52;15.82;;;;;;;18.57;56.80;93751.97;5034904;28;20124;-75
2021/09/19 10:36:31;;;;;;;20.33;15.38;;;;;;;18.69;56.38;93742.88;5034220;28;20063;-75
2021/09/19 10:39:16;;;;;;;20.08;15.23;;;;;;;18.94;56.17;93756.69;5034350;28;20687;-76
2021/09/19 10:42:16;;;;;;;18.45;14.85;;;;;;;19.08;54.99;93757.63;5033344;28;20036;-75
2021/09/19 10:44:44;;;;;;;17.77;14.98;;;;;;;19.11;54.49;93746.13;5030981;28;20036;-76
2021/09/19 10:47:30;;;;;;;16.08;14.38;;;;;;;19.16;55.11;93756.59;5033192;28;20032;-75
2021/09/19 10:50:22;;;;;;;14.73;13.23;;;;;;;19.26;56.15;93760.56;5036387;28;20091;-75
2021/09/19 10:52:50;;;;;;;16.98;14.20;;;;;;;19.37;55.64;93739.84;5034805;28;20460;-75
2021/09/19 10:55:57;;;;;;;16.10;13.60;;;;;;;19.42;55.95;93734.13;5034824;28;20130;-75
2021/09/19 10:58:40;;;;;;;17.02;13.88;;;;;;;19.42;56.90;93739.50;5028907;28;20052;-76
2021/09/19 11:01:11;;;;;;;17.15;13.45;;;;;;;19.07;56.67;93731.03;5044801;28;20060;-76
2021/09/19 11:03:38;;;;;;;17.77;14.55;;;;;;;18.76;57.44;93738.41;5033678;28;20040;-75
2021/09/19 11:06:03;;;;;;;17.50;15.55;;;;;;;18.73;58.13;93727.56;5031316;28;20041;-75
2021/09/19 11:08:41;;;;;;;17.83;15.40;;;;;;;18.83;58.63;93716.91;5033421;28;20059;-76
2021/09/19 11:11:09;;;;;;;18.50;15.80;;;;;;;18.89;57.81;93707.38;5033470;28;20041;-76
2021/09/19 11:13:45;;;;;;;17.52;15.48;;;;;;;18.97;57.33;93715.56;5030982;28;20102;-76
2021/09/19 11:16:23;;;;;;;21.08;14.85;;;;;;;19.02;58.58;93720.63;5035735;28;20431;-76
2021/09/19 11:18:52;;;;;;;18.73;13.90;;;;;;;19.06;58.39;93716.81;5030136;28;20088;-75
2021/09/19 11:21:20;;;;;;;16.75;13.95;;;;;;;19.19;58.75;93714.63;5031283;28;20041;-75
2021/09/19 11:23:47;;;;;;;17.30;15.25;;;;;;;19.22;59.33;93705.78;5034297;28;20037;-75
2021/09/19 11:26:20;;;;;;;22.23;16.40;;;;;;;19.40;58.67;93706.00;5032220;28;20032;-75